sensor_id;sensor_type;location;lat;lon;timestamp;P1;durP1;ratioP1;P2;durP2;ratioP2
22336;SDS011;14992;50.844;4.418;2024-01-30T01:34:51;4.00;;;2.90;;
22336;SDS011;14992;50.844;4.418;2024-01-30T01:37:20;5.40;;;3.33;;
22336;SDS011;14992;50.844;4.418;2024-01-30T01:39:49;4.38;;;3.25;;
22336;SDS011;14992;50.844;4.418;2024-01-30T01:42:18;6.72;;;3.20;;
22336;SDS011;14992;50.844;4.418;2024-01-30T01:44:47;5.63;;;3.25;;
22336;SDS011;14992;50.844;4.418;2024-01-30T01:47:16;5.03;;;3.15;;
22336;SDS011;14992;50.844;4.418;2024-01-30T01:49:45;5.22;;;2.72;;
22336;SDS011;14992;50.844;4.418;2024-01-30T01:52:16;5.93;;;3.13;;
22336;SDS011;14992;50.844;4.418;2024-01-30T01:54:45;5.75;;;3.78;;
22336;SDS011;14992;50.844;4.418;2024-01-30T01:57:14;5.30;;;3.28;;
22336;SDS011;14992;50.844;4.418;2024-01-30T01:59:43;3.63;;;2.92;;
22336;SDS011;14992;50.844;4.418;2024-01-30T02:02:12;5.18;;;2.97;;
22336;SDS011;14992;50.844;4.418;2024-01-30T02:04:45;4.55;;;3.10;;
22336;SDS011;14992;50.844;4.418;2024-01-30T02:07:14;7.45;;;3.65;;
22336;SDS011;14992;50.844;4.418;2024-01-30T02:09:45;3.50;;;2.88;;
22336;SDS011;14992;50.844;4.418;2024-01-30T02:12:14;4.43;;;3.50;;
22336;SDS011;14992;50.844;4.418;2024-01-30T02:14:46;5.63;;;3.20;;
22336;SDS011;14992;50.844;4.418;2024-01-30T02:17:16;3.70;;;3.00;;
22336;SDS011;14992;50.844;4.418;2024-01-30T02:19:45;4.75;;;3.15;;
22336;SDS011;14992;50.844;4.418;2024-01-30T02:22:15;5.35;;;2.97;;
22336;SDS011;14992;50.844;4.418;2024-01-30T02:24:45;6.40;;;3.50;;
22336;SDS011;14992;50.844;4.418;2024-01-30T02:27:14;5.63;;;2.72;;
22336;SDS011;14992;50.844;4.418;2024-01-30T02:29:42;6.13;;;3.38;;
22336;SDS011;14992;50.844;4.418;2024-01-30T02:32:11;3.42;;;3.13;;
22336;SDS011;14992;50.844;4.418;2024-01-30T02:34:40;3.88;;;2.90;;
22336;SDS011;14992;50.844;4.418;2024-01-30T02:37:09;8.07;;;3.53;;
22336;SDS011;14992;50.844;4.418;2024-01-30T02:39:40;5.45;;;3.45;;
22336;SDS011;14992;50.844;4.418;2024-01-30T02:42:09;4.30;;;3.28;;
22336;SDS011;14992;50.844;4.418;2024-01-30T02:44:37;4.35;;;2.90;;
22336;SDS011;14992;50.844;4.418;2024-01-30T02:47:06;6.10;;;3.88;;
22336;SDS011;14992;50.844;4.418;2024-01-30T02:49:35;4.68;;;3.35;;
22336;SDS011;14992;50.844;4.418;2024-01-30T02:52:04;3.83;;;3.15;;
22336;SDS011;14992;50.844;4.418;2024-01-30T02:54:33;4.75;;;3.20;;
22336;SDS011;14992;50.844;4.418;2024-01-30T02:57:03;3.95;;;2.90;;
22336;SDS011;14992;50.844;4.418;2024-01-30T02:59:32;4.50;;;3.17;;
22336;SDS011;14992;50.844;4.418;2024-01-30T03:02:03;6.10;;;3.20;;
22336;SDS011;14992;50.844;4.418;2024-01-30T03:04:32;5.68;;;3.05;;
22336;SDS011;14992;50.844;4.418;2024-01-30T03:07:01;6.68;;;3.15;;
22336;SDS011;14992;50.844;4.418;2024-01-30T03:09:30;7.75;;;3.65;;
22336;SDS011;14992;50.844;4.418;2024-01-30T03:11:59;3.58;;;2.72;;
22336;SDS011;14992;50.844;4.418;2024-01-30T03:14:30;5.03;;;2.88;;
22336;SDS011;14992;50.844;4.418;2024-01-30T03:16:59;6.68;;;3.60;;
22336;SDS011;14992;50.844;4.418;2024-01-30T03:19:27;6.85;;;3.40;;
22336;SDS011;14992;50.844;4.418;2024-01-30T03:21:56;3.85;;;2.58;;
22336;SDS011;14992;50.844;4.418;2024-01-30T03:24:25;4.75;;;2.90;;
22336;SDS011;14992;50.844;4.418;2024-01-30T03:26:54;5.15;;;3.35;;
22336;SDS011;14992;50.844;4.418;2024-01-30T03:29:23;5.22;;;3.30;;
22336;SDS011;14992;50.844;4.418;2024-01-30T03:31:53;4.35;;;3.38;;
22336;SDS011;14992;50.844;4.418;2024-01-30T03:34:22;3.72;;;2.80;;
22336;SDS011;14992;50.844;4.418;2024-01-30T03:36:51;4.80;;;3.50;;
22336;SDS011;14992;50.844;4.418;2024-01-30T03:39:20;6.18;;;3.53;;
22336;SDS011;14992;50.844;4.418;2024-01-30T03:41:49;4.75;;;3.30;;
22336;SDS011;14992;50.844;4.418;2024-01-30T03:44:17;5.07;;;3.50;;
22336;SDS011;14992;50.844;4.418;2024-01-30T03:46:46;6.00;;;3.40;;
22336;SDS011;14992;50.844;4.418;2024-01-30T03:49:16;3.63;;;2.58;;
22336;SDS011;14992;50.844;4.418;2024-01-30T03:51:45;5.95;;;3.45;;
22336;SDS011;14992;50.844;4.418;2024-01-30T03:54:15;5.22;;;3.67;;
22336;SDS011;14992;50.844;4.418;2024-01-30T03:56:44;5.93;;;3.47;;
22336;SDS011;14992;50.844;4.418;2024-01-30T03:59:12;6.35;;;3.38;;
22336;SDS011;14992;50.844;4.418;2024-01-30T04:01:41;5.20;;;3.55;;
22336;SDS011;14992;50.844;4.418;2024-01-30T04:04:10;5.22;;;3.35;;
22336;SDS011;14992;50.844;4.418;2024-01-30T04:06:40;6.35;;;3.75;;
22336;SDS011;14992;50.844;4.418;2024-01-30T04:09:09;6.90;;;3.72;;
22336;SDS011;14992;50.844;4.418;2024-01-30T04:11:40;6.18;;;3.53;;
22336;SDS011;14992;50.844;4.418;2024-01-30T04:14:09;5.07;;;3.55;;
22336;SDS011;14992;50.844;4.418;2024-01-30T04:16:38;4.00;;;3.20;;
22336;SDS011;14992;50.844;4.418;2024-01-30T04:19:07;4.38;;;2.67;;
22336;SDS011;14992;50.844;4.418;2024-01-30T04:21:36;5.60;;;3.22;;
22336;SDS011;14992;50.844;4.418;2024-01-30T04:24:06;5.75;;;3.10;;
22336;SDS011;14992;50.844;4.418;2024-01-30T04:26:35;5.53;;;3.30;;
22336;SDS011;14992;50.844;4.418;2024-01-30T04:29:04;8.75;;;3.92;;
22336;SDS011;14992;50.844;4.418;2024-01-30T04:31:33;4.28;;;3.33;;
22336;SDS011;14992;50.844;4.418;2024-01-30T04:34:04;4.82;;;3.60;;
22336;SDS011;14992;50.844;4.418;2024-01-30T04:36:33;5.68;;;3.83;;
22336;SDS011;14992;50.844;4.418;2024-01-30T04:39:02;4.70;;;3.30;;
22336;SDS011;14992;50.844;4.418;2024-01-30T04:41:32;6.53;;;3.25;;
22336;SDS011;14992;50.844;4.418;2024-01-30T04:44:00;5.28;;;3.35;;
22336;SDS011;14992;50.844;4.418;2024-01-30T04:46:29;5.07;;;3.40;;
22336;SDS011;14992;50.844;4.418;2024-01-30T04:48:58;6.47;;;3.33;;
22336;SDS011;14992;50.844;4.418;2024-01-30T04:51:27;3.95;;;3.35;;
22336;SDS011;14992;50.844;4.418;2024-01-30T04:53:56;6.68;;;3.80;;
22336;SDS011;14992;50.844;4.418;2024-01-30T04:56:25;4.90;;;3.38;;
22336;SDS011;14992;50.844;4.418;2024-01-30T04:58:55;4.13;;;3.10;;
22336;SDS011;14992;50.844;4.418;2024-01-30T05:01:24;6.47;;;3.90;;
22336;SDS011;14992;50.844;4.418;2024-01-30T05:03:53;6.40;;;4.03;;
22336;SDS011;14992;50.844;4.418;2024-01-30T05:06:25;4.47;;;3.22;;
22336;SDS011;14992;50.844;4.418;2024-01-30T05:08:54;5.95;;;3.85;;
22336;SDS011;14992;50.844;4.418;2024-01-30T05:11:23;4.95;;;3.63;;
22336;SDS011;14992;50.844;4.418;2024-01-30T05:13:52;7.65;;;3.80;;
22336;SDS011;14992;50.844;4.418;2024-01-30T05:16:22;6.93;;;4.03;;
22336;SDS011;14992;50.844;4.418;2024-01-30T05:18:51;4.93;;;3.92;;
22336;SDS011;14992;50.844;4.418;2024-01-30T05:21:20;8.23;;;5.25;;
22336;SDS011;14992;50.844;4.418;2024-01-30T05:23:49;6.30;;;4.20;;
22336;SDS011;14992;50.844;4.418;2024-01-30T05:26:17;5.95;;;3.85;;
22336;SDS011;14992;50.844;4.418;2024-01-30T05:28:46;6.05;;;3.67;;
22336;SDS011;14992;50.844;4.418;2024-01-30T05:31:15;7.57;;;3.78;;
22336;SDS011;14992;50.844;4.418;2024-01-30T05:33:45;5.32;;;3.55;;
22336;SDS011;14992;50.844;4.418;2024-01-30T05:36:14;5.00;;;4.13;;
22336;SDS011;14992;50.844;4.418;2024-01-30T05:38:43;12.50;;;4.57;;
22336;SDS011;14992;50.844;4.418;2024-01-30T05:41:12;4.78;;;3.60;;
22336;SDS011;14992;50.844;4.418;2024-01-30T05:43:41;9.25;;;3.53;;
22336;SDS011;14992;50.844;4.418;2024-01-30T05:46:10;6.72;;;4.05;;
22336;SDS011;14992;50.844;4.418;2024-01-30T05:48:39;30.30;;;14.70;;
22336;SDS011;14992;50.844;4.418;2024-01-30T05:51:09;8.35;;;5.07;;
22336;SDS011;14992;50.844;4.418;2024-01-30T05:53:38;8.30;;;4.70;;
22336;SDS011;14992;50.844;4.418;2024-01-30T05:56:07;6.05;;;3.42;;
22336;SDS011;14992;50.844;4.418;2024-01-30T05:58:36;5.15;;;3.78;;
22336;SDS011;14992;50.844;4.418;2024-01-30T06:01:06;5.65;;;4.03;;
22336;SDS011;14992;50.844;4.418;2024-01-30T06:03:36;6.85;;;3.45;;
22336;SDS011;14992;50.844;4.418;2024-01-30T06:06:06;7.45;;;3.90;;
22336;SDS011;14992;50.844;4.418;2024-01-30T06:08:36;7.15;;;4.00;;
22336;SDS011;14992;50.844;4.418;2024-01-30T06:11:04;5.85;;;3.90;;
22336;SDS011;14992;50.844;4.418;2024-01-30T06:13:33;7.82;;;3.97;;
22336;SDS011;14992;50.844;4.418;2024-01-30T06:16:02;7.20;;;3.92;;
22336;SDS011;14992;50.844;4.418;2024-01-30T06:18:31;4.57;;;3.20;;
22336;SDS011;14992;50.844;4.418;2024-01-30T06:21:00;6.20;;;3.33;;
22336;SDS011;14992;50.844;4.418;2024-01-30T06:23:28;8.50;;;4.00;;
22336;SDS011;14992;50.844;4.418;2024-01-30T06:25:59;5.38;;;3.75;;
22336;SDS011;14992;50.844;4.418;2024-01-30T06:28:26;6.90;;;3.85;;
22336;SDS011;14992;50.844;4.418;2024-01-30T06:30:56;7.35;;;4.03;;
22336;SDS011;14992;50.844;4.418;2024-01-30T06:33:24;4.57;;;3.85;;
22336;SDS011;14992;50.844;4.418;2024-01-30T06:35:53;6.50;;;4.32;;
22336;SDS011;14992;50.844;4.418;2024-01-30T06:38:22;7.30;;;4.38;;
22336;SDS011;14992;50.844;4.418;2024-01-30T06:40:51;9.10;;;4.32;;
22336;SDS011;14992;50.844;4.418;2024-01-30T06:43:21;5.68;;;4.40;;
22336;SDS011;14992;50.844;4.418;2024-01-30T06:45:50;6.68;;;4.35;;
22336;SDS011;14992;50.844;4.418;2024-01-30T06:48:19;4.60;;;3.83;;
22336;SDS011;14992;50.844;4.418;2024-01-30T06:50:48;7.40;;;4.30;;
22336;SDS011;14992;50.844;4.418;2024-01-30T06:53:17;4.97;;;4.13;;
22336;SDS011;14992;50.844;4.418;2024-01-30T06:55:46;6.13;;;3.90;;
22336;SDS011;14992;50.844;4.418;2024-01-30T06:58:15;7.43;;;4.47;;
22336;SDS011;14992;50.844;4.418;2024-01-30T07:00:45;6.82;;;4.50;;
22336;SDS011;14992;50.844;4.418;2024-01-30T07:03:14;7.93;;;4.63;;
22336;SDS011;14992;50.844;4.418;2024-01-30T07:05:43;7.28;;;4.22;;
22336;SDS011;14992;50.844;4.418;2024-01-30T07:08:12;6.97;;;3.92;;
22336;SDS011;14992;50.844;4.418;2024-01-30T07:10:44;9.35;;;4.53;;
22336;SDS011;14992;50.844;4.418;2024-01-30T07:13:12;6.85;;;4.38;;
22336;SDS011;14992;50.844;4.418;2024-01-30T07:15:43;7.80;;;3.63;;
22336;SDS011;14992;50.844;4.418;2024-01-30T07:18:13;7.47;;;4.68;;
22336;SDS011;14992;50.844;4.418;2024-01-30T07:20:42;12.68;;;4.68;;
22336;SDS011;14992;50.844;4.418;2024-01-30T07:23:13;6.80;;;4.53;;
22336;SDS011;14992;50.844;4.418;2024-01-30T07:25:43;6.47;;;4.45;;
22336;SDS011;14992;50.844;4.418;2024-01-30T07:28:15;6.13;;;4.38;;
22336;SDS011;14992;50.844;4.418;2024-01-30T07:30:44;7.20;;;4.15;;
22336;SDS011;14992;50.844;4.418;2024-01-30T07:33:15;7.07;;;4.45;;
22336;SDS011;14992;50.844;4.418;2024-01-30T07:35:45;9.65;;;4.53;;
22336;SDS011;14992;50.844;4.418;2024-01-30T07:38:14;7.72;;;4.35;;
22336;SDS011;14992;50.844;4.418;2024-01-30T07:40:42;9.60;;;4.78;;
22336;SDS011;14992;50.844;4.418;2024-01-30T07:43:11;8.10;;;4.50;;
22336;SDS011;14992;50.844;4.418;2024-01-30T07:45:40;7.20;;;4.22;;
22336;SDS011;14992;50.844;4.418;2024-01-30T07:48:09;9.45;;;4.22;;
22336;SDS011;14992;50.844;4.418;2024-01-30T07:50:39;9.48;;;5.00;;
22336;SDS011;14992;50.844;4.418;2024-01-30T07:53:08;9.70;;;4.55;;
22336;SDS011;14992;50.844;4.418;2024-01-30T07:55:37;9.00;;;4.45;;
22336;SDS011;14992;50.844;4.418;2024-01-30T07:58:06;6.35;;;4.18;;
22336;SDS011;14992;50.844;4.418;2024-01-30T08:00:35;8.75;;;4.28;;
22336;SDS011;14992;50.844;4.418;2024-01-30T08:03:04;8.25;;;4.15;;
22336;SDS011;14992;50.844;4.418;2024-01-30T08:05:33;11.52;;;4.85;;
22336;SDS011;14992;50.844;4.418;2024-01-30T08:08:04;8.25;;;5.18;;
22336;SDS011;14992;50.844;4.418;2024-01-30T08:10:33;10.95;;;5.47;;
22336;SDS011;14992;50.844;4.418;2024-01-30T08:13:02;10.02;;;4.95;;
22336;SDS011;14992;50.844;4.418;2024-01-30T08:15:31;8.65;;;4.93;;
22336;SDS011;14992;50.844;4.418;2024-01-30T08:18:00;11.60;;;4.80;;
22336;SDS011;14992;50.844;4.418;2024-01-30T08:20:29;13.70;;;5.40;;
22336;SDS011;14992;50.844;4.418;2024-01-30T08:22:58;12.82;;;4.97;;
22336;SDS011;14992;50.844;4.418;2024-01-30T08:25:29;11.13;;;5.00;;
22336;SDS011;14992;50.844;4.418;2024-01-30T08:27:58;10.20;;;4.85;;
22336;SDS011;14992;50.844;4.418;2024-01-30T08:30:28;10.20;;;4.93;;
22336;SDS011;14992;50.844;4.418;2024-01-30T08:32:57;8.13;;;4.68;;
22336;SDS011;14992;50.844;4.418;2024-01-30T08:35:26;9.65;;;6.10;;
22336;SDS011;14992;50.844;4.418;2024-01-30T08:37:55;9.25;;;4.63;;
22336;SDS011;14992;50.844;4.418;2024-01-30T08:40:24;11.70;;;4.53;;
22336;SDS011;14992;50.844;4.418;2024-01-30T08:42:55;9.02;;;4.18;;
22336;SDS011;14992;50.844;4.418;2024-01-30T08:45:25;9.40;;;4.60;;
22336;SDS011;14992;50.844;4.418;2024-01-30T08:47:53;7.35;;;6.05;;
22336;SDS011;14992;50.844;4.418;2024-01-30T08:50:22;13.30;;;5.50;;
22336;SDS011;14992;50.844;4.418;2024-01-30T08:52:51;8.63;;;4.68;;
22336;SDS011;14992;50.844;4.418;2024-01-30T08:55:20;10.43;;;5.20;;
22336;SDS011;14992;50.844;4.418;2024-01-30T08:57:49;10.65;;;5.38;;
22336;SDS011;14992;50.844;4.418;2024-01-30T09:00:20;8.73;;;4.85;;
22336;SDS011;14992;50.844;4.418;2024-01-30T09:02:49;11.10;;;4.50;;
22336;SDS011;14992;50.844;4.418;2024-01-30T09:05:18;7.60;;;4.60;;
22336;SDS011;14992;50.844;4.418;2024-01-30T09:07:46;6.85;;;4.97;;
22336;SDS011;14992;50.844;4.418;2024-01-30T09:10:15;12.55;;;5.15;;
22336;SDS011;14992;50.844;4.418;2024-01-30T09:12:47;9.43;;;4.90;;
22336;SDS011;14992;50.844;4.418;2024-01-30T09:15:16;7.65;;;4.70;;
22336;SDS011;14992;50.844;4.418;2024-01-30T09:17:47;11.68;;;4.22;;
22336;SDS011;14992;50.844;4.418;2024-01-30T09:20:16;6.20;;;4.45;;
22336;SDS011;14992;50.844;4.418;2024-01-30T09:22:44;8.38;;;4.75;;
22336;SDS011;14992;50.844;4.418;2024-01-30T09:25:13;10.57;;;4.88;;
22336;SDS011;14992;50.844;4.418;2024-01-30T09:27:42;7.25;;;5.28;;
22336;SDS011;14992;50.844;4.418;2024-01-30T09:30:12;12.85;;;4.78;;
22336;SDS011;14992;50.844;4.418;2024-01-30T09:32:41;9.85;;;5.10;;
22336;SDS011;14992;50.844;4.418;2024-01-30T09:35:12;10.57;;;5.18;;
22336;SDS011;14992;50.844;4.418;2024-01-30T09:37:41;10.55;;;5.70;;
22336;SDS011;14992;50.844;4.418;2024-01-30T09:40:10;10.18;;;4.10;;
22336;SDS011;14992;50.844;4.418;2024-01-30T09:42:40;12.60;;;7.13;;
22336;SDS011;14992;50.844;4.418;2024-01-30T09:45:11;9.32;;;4.70;;
22336;SDS011;14992;50.844;4.418;2024-01-30T09:47:43;9.65;;;5.35;;
22336;SDS011;14992;50.844;4.418;2024-01-30T09:50:15;9.80;;;5.90;;
22336;SDS011;14992;50.844;4.418;2024-01-30T09:52:44;9.50;;;5.65;;
22336;SDS011;14992;50.844;4.418;2024-01-30T09:55:14;11.00;;;5.88;;
22336;SDS011;14992;50.844;4.418;2024-01-30T09:57:43;12.10;;;6.20;;
22336;SDS011;14992;50.844;4.418;2024-01-30T10:00:12;10.30;;;5.68;;
22336;SDS011;14992;50.844;4.418;2024-01-30T10:02:41;8.63;;;5.90;;
22336;SDS011;14992;50.844;4.418;2024-01-30T10:05:10;11.93;;;6.65;;
22336;SDS011;14992;50.844;4.418;2024-01-30T10:07:52;12.85;;;6.30;;
22336;SDS011;14992;50.844;4.418;2024-01-30T10:10:22;10.15;;;6.35;;
22336;SDS011;14992;50.844;4.418;2024-01-30T10:12:51;14.48;;;7.13;;
22336;SDS011;14992;50.844;4.418;2024-01-30T10:15:20;11.80;;;7.07;;
22336;SDS011;14992;50.844;4.418;2024-01-30T10:17:49;12.98;;;6.53;;
22336;SDS011;14992;50.844;4.418;2024-01-30T10:20:18;8.93;;;6.63;;
22336;SDS011;14992;50.844;4.418;2024-01-30T10:22:51;15.10;;;6.88;;
22336;SDS011;14992;50.844;4.418;2024-01-30T10:25:21;12.25;;;7.45;;
22336;SDS011;14992;50.844;4.418;2024-01-30T10:27:52;12.23;;;6.72;;
22336;SDS011;14992;50.844;4.418;2024-01-30T10:30:22;11.48;;;6.50;;
22336;SDS011;14992;50.844;4.418;2024-01-30T10:32:51;15.93;;;6.65;;
22336;SDS011;14992;50.844;4.418;2024-01-30T10:35:20;10.10;;;6.07;;
22336;SDS011;14992;50.844;4.418;2024-01-30T10:37:50;10.40;;;5.78;;
22336;SDS011;14992;50.844;4.418;2024-01-30T10:40:20;11.40;;;6.78;;
22336;SDS011;14992;50.844;4.418;2024-01-30T10:42:52;9.45;;;6.47;;
22336;SDS011;14992;50.844;4.418;2024-01-30T10:45:23;11.05;;;6.00;;
22336;SDS011;14992;50.844;4.418;2024-01-30T10:47:56;9.40;;;5.60;;
22336;SDS011;14992;50.844;4.418;2024-01-30T10:50:29;15.10;;;6.43;;
22336;SDS011;14992;50.844;4.418;2024-01-30T10:53:01;10.13;;;5.60;;
22336;SDS011;14992;50.844;4.418;2024-01-30T10:55:32;11.40;;;6.35;;
22336;SDS011;14992;50.844;4.418;2024-01-30T10:58:01;9.65;;;5.72;;
22336;SDS011;14992;50.844;4.418;2024-01-30T11:00:32;9.48;;;4.63;;
22336;SDS011;14992;50.844;4.418;2024-01-30T11:03:01;11.55;;;5.10;;
22336;SDS011;14992;50.844;4.418;2024-01-30T11:05:31;7.63;;;5.43;;
22336;SDS011;14992;50.844;4.418;2024-01-30T11:08:12;5.85;;;4.07;;
22336;SDS011;14992;50.844;4.418;2024-01-30T11:10:44;7.63;;;4.32;;
22336;SDS011;14992;50.844;4.418;2024-01-30T11:13:14;8.77;;;5.03;;
22336;SDS011;14992;50.844;4.418;2024-01-30T11:15:43;8.95;;;4.75;;
22336;SDS011;14992;50.844;4.418;2024-01-30T11:18:12;8.48;;;4.40;;
22336;SDS011;14992;50.844;4.418;2024-01-30T11:20:51;8.60;;;3.28;;
22336;SDS011;14992;50.844;4.418;2024-01-30T11:23:23;5.88;;;3.50;;
22336;SDS011;14992;50.844;4.418;2024-01-30T11:25:53;3.47;;;2.50;;
22336;SDS011;14992;50.844;4.418;2024-01-30T11:28:24;8.15;;;3.33;;
22336;SDS011;14992;50.844;4.418;2024-01-30T11:31:04;6.53;;;2.13;;
22336;SDS011;14992;50.844;4.418;2024-01-30T11:33:35;5.20;;;1.85;;
22336;SDS011;14992;50.844;4.418;2024-01-30T11:36:05;4.47;;;1.52;;
22336;SDS011;14992;50.844;4.418;2024-01-30T11:38:37;3.15;;;1.83;;
22336;SDS011;14992;50.844;4.418;2024-01-30T11:41:08;2.33;;;1.42;;
22336;SDS011;14992;50.844;4.418;2024-01-30T11:43:37;4.90;;;1.55;;
22336;SDS011;14992;50.844;4.418;2024-01-30T11:46:06;1.38;;;1.25;;
22336;SDS011;14992;50.844;4.418;2024-01-30T11:48:37;2.60;;;1.40;;
22336;SDS011;14992;50.844;4.418;2024-01-30T11:51:06;2.88;;;1.30;;
22336;SDS011;14992;50.844;4.418;2024-01-30T11:53:37;5.40;;;1.30;;
22336;SDS011;14992;50.844;4.418;2024-01-30T11:56:06;4.13;;;1.20;;
22336;SDS011;14992;50.844;4.418;2024-01-30T11:58:36;5.13;;;1.45;;
22336;SDS011;14992;50.844;4.418;2024-01-30T12:01:05;3.58;;;0.88;;
22336;SDS011;14992;50.844;4.418;2024-01-30T12:03:34;9.45;;;1.60;;
22336;SDS011;14992;50.844;4.418;2024-01-30T12:06:03;3.35;;;0.90;;
22336;SDS011;14992;50.844;4.418;2024-01-30T12:08:33;1.17;;;0.82;;
22336;SDS011;14992;50.844;4.418;2024-01-30T12:11:06;2.55;;;1.40;;
22336;SDS011;14992;50.844;4.418;2024-01-30T12:13:35;2.83;;;0.63;;
22336;SDS011;14992;50.844;4.418;2024-01-30T12:16:05;2.65;;;0.75;;
22336;SDS011;14992;50.844;4.418;2024-01-30T12:18:35;1.58;;;0.60;;
22336;SDS011;14992;50.844;4.418;2024-01-30T12:21:04;2.72;;;0.60;;
22336;SDS011;14992;50.844;4.418;2024-01-30T12:23:34;4.20;;;0.73;;
22336;SDS011;14992;50.844;4.418;2024-01-30T12:26:05;4.63;;;1.27;;
22336;SDS011;14992;50.844;4.418;2024-01-30T12:28:34;1.58;;;0.60;;
22336;SDS011;14992;50.844;4.418;2024-01-30T12:31:03;4.15;;;0.55;;
22336;SDS011;14992;50.844;4.418;2024-01-30T12:33:32;2.97;;;0.70;;
22336;SDS011;14992;50.844;4.418;2024-01-30T12:36:01;4.63;;;2.28;;
22336;SDS011;14992;50.844;4.418;2024-01-30T12:38:31;0.75;;;0.50;;
22336;SDS011;14992;50.844;4.418;2024-01-30T12:41:00;2.08;;;0.52;;
22336;SDS011;14992;50.844;4.418;2024-01-30T12:43:30;2.30;;;0.60;;
22336;SDS011;14992;50.844;4.418;2024-01-30T12:46:05;3.03;;;0.60;;
22336;SDS011;14992;50.844;4.418;2024-01-30T12:48:34;0.95;;;0.52;;
22336;SDS011;14992;50.844;4.418;2024-01-30T12:51:03;5.25;;;0.70;;
22336;SDS011;14992;50.844;4.418;2024-01-30T12:53:32;2.40;;;0.70;;
22336;SDS011;14992;50.844;4.418;2024-01-30T12:56:02;2.10;;;0.50;;
22336;SDS011;14992;50.844;4.418;2024-01-30T12:58:32;3.15;;;0.70;;
22336;SDS011;14992;50.844;4.418;2024-01-30T13:01:01;1.35;;;0.70;;
22336;SDS011;14992;50.844;4.418;2024-01-30T13:03:31;1.77;;;0.70;;
22336;SDS011;14992;50.844;4.418;2024-01-30T13:06:02;1.75;;;0.63;;
22336;SDS011;14992;50.844;4.418;2024-01-30T13:08:31;6.25;;;1.27;;
22336;SDS011;14992;50.844;4.418;2024-01-30T13:11:00;1.65;;;0.85;;
22336;SDS011;14992;50.844;4.418;2024-01-30T13:13:29;4.30;;;1.50;;
22336;SDS011;14992;50.844;4.418;2024-01-30T13:15:59;5.53;;;1.20;;
22336;SDS011;14992;50.844;4.418;2024-01-30T13:18:28;3.95;;;1.00;;
22336;SDS011;14992;50.844;4.418;2024-01-30T13:20:57;4.90;;;1.05;;
22336;SDS011;14992;50.844;4.418;2024-01-30T13:23:26;3.47;;;0.77;;
22336;SDS011;14992;50.844;4.418;2024-01-30T13:25:55;3.25;;;0.75;;
22336;SDS011;14992;50.844;4.418;2024-01-30T13:28:25;4.10;;;1.20;;
22336;SDS011;14992;50.844;4.418;2024-01-30T13:30:55;3.70;;;0.80;;
22336;SDS011;14992;50.844;4.418;2024-01-30T13:33:25;4.38;;;0.98;;
22336;SDS011;14992;50.844;4.418;2024-01-30T13:35:54;3.03;;;0.73;;
22336;SDS011;14992;50.844;4.418;2024-01-30T13:38:23;1.80;;;1.10;;
22336;SDS011;14992;50.844;4.418;2024-01-30T13:40:52;3.75;;;0.85;;
22336;SDS011;14992;50.844;4.418;2024-01-30T13:43:21;3.10;;;0.80;;
22336;SDS011;14992;50.844;4.418;2024-01-30T13:45:50;1.73;;;0.40;;
22336;SDS011;14992;50.844;4.418;2024-01-30T13:48:19;2.42;;;0.68;;
22336;SDS011;14992;50.844;4.418;2024-01-30T13:50:50;4.43;;;0.60;;
22336;SDS011;14992;50.844;4.418;2024-01-30T13:53:21;3.08;;;0.77;;
22336;SDS011;14992;50.844;4.418;2024-01-30T13:55:50;3.50;;;0.57;;
22336;SDS011;14992;50.844;4.418;2024-01-30T13:58:19;3.78;;;0.80;;
22336;SDS011;14992;50.844;4.418;2024-01-30T14:00:48;4.20;;;0.82;;
22336;SDS011;14992;50.844;4.418;2024-01-30T14:03:17;3.33;;;0.85;;
22336;SDS011;14992;50.844;4.418;2024-01-30T14:05:46;1.60;;;0.95;;
22336;SDS011;14992;50.844;4.418;2024-01-30T14:08:16;1.85;;;0.90;;
22336;SDS011;14992;50.844;4.418;2024-01-30T14:10:47;3.90;;;0.80;;
22336;SDS011;14992;50.844;4.418;2024-01-30T14:13:16;3.03;;;0.60;;
22336;SDS011;14992;50.844;4.418;2024-01-30T14:15:45;0.95;;;0.65;;
22336;SDS011;14992;50.844;4.418;2024-01-30T14:18:14;2.03;;;0.70;;
22336;SDS011;14992;50.844;4.418;2024-01-30T14:20:43;2.75;;;0.85;;
22336;SDS011;14992;50.844;4.418;2024-01-30T14:23:12;3.60;;;1.00;;
22336;SDS011;14992;50.844;4.418;2024-01-30T14:25:43;3.00;;;0.88;;
22336;SDS011;14992;50.844;4.418;2024-01-30T14:28:12;3.65;;;0.95;;
22336;SDS011;14992;50.844;4.418;2024-01-30T14:30:40;5.82;;;2.42;;
22336;SDS011;14992;50.844;4.418;2024-01-30T14:33:09;4.70;;;0.70;;
22336;SDS011;14992;50.844;4.418;2024-01-30T14:35:39;2.20;;;0.50;;
22336;SDS011;14992;50.844;4.418;2024-01-30T14:38:08;1.70;;;0.70;;
22336;SDS011;14992;50.844;4.418;2024-01-30T14:40:38;1.95;;;0.85;;
22336;SDS011;14992;50.844;4.418;2024-01-30T14:43:08;1.63;;;0.75;;
22336;SDS011;14992;50.844;4.418;2024-01-30T14:45:37;1.10;;;0.80;;
22336;SDS011;14992;50.844;4.418;2024-01-30T14:48:06;2.22;;;0.70;;
22336;SDS011;14992;50.844;4.418;2024-01-30T14:50:36;1.65;;;0.90;;
22336;SDS011;14992;50.844;4.418;2024-01-30T14:53:05;3.90;;;0.88;;
22336;SDS011;14992;50.844;4.418;2024-01-30T14:55:34;3.53;;;0.85;;
22336;SDS011;14992;50.844;4.418;2024-01-30T14:58:03;3.33;;;1.17;;
22336;SDS011;14992;50.844;4.418;2024-01-30T15:00:34;1.98;;;0.75;;
22336;SDS011;14992;50.844;4.418;2024-01-30T15:03:05;2.72;;;1.00;;
22336;SDS011;14992;50.844;4.418;2024-01-30T15:05:34;1.33;;;0.90;;
22336;SDS011;14992;50.844;4.418;2024-01-30T15:08:03;3.90;;;1.08;;
22336;SDS011;14992;50.844;4.418;2024-01-30T15:10:32;4.07;;;1.20;;
22336;SDS011;14992;50.844;4.418;2024-01-30T15:13:01;1.38;;;1.15;;
22336;SDS011;14992;50.844;4.418;2024-01-30T15:15:30;21.42;;;9.70;;
22336;SDS011;14992;50.844;4.418;2024-01-30T15:18:01;3.83;;;1.00;;
22336;SDS011;14992;50.844;4.418;2024-01-30T15:20:30;6.43;;;1.15;;
22336;SDS011;14992;50.844;4.418;2024-01-30T15:22:59;2.40;;;1.85;;
22336;SDS011;14992;50.844;4.418;2024-01-30T15:25:28;6.05;;;1.83;;
22336;SDS011;14992;50.844;4.418;2024-01-30T15:27:57;1.63;;;0.80;;
22336;SDS011;14992;50.844;4.418;2024-01-30T15:30:25;3.22;;;0.63;;
22336;SDS011;14992;50.844;4.418;2024-01-30T15:32:54;3.30;;;0.85;;
22336;SDS011;14992;50.844;4.418;2024-01-30T15:35:24;1.92;;;0.60;;
22336;SDS011;14992;50.844;4.418;2024-01-30T15:37:53;1.33;;;1.17;;
22336;SDS011;14992;50.844;4.418;2024-01-30T15:40:22;2.22;;;0.93;;
22336;SDS011;14992;50.844;4.418;2024-01-30T15:42:51;3.72;;;1.00;;
22336;SDS011;14992;50.844;4.418;2024-01-30T15:45:20;1.27;;;0.98;;
22336;SDS011;14992;50.844;4.418;2024-01-30T15:47:50;4.65;;;1.92;;
22336;SDS011;14992;50.844;4.418;2024-01-30T15:50:19;2.20;;;1.70;;
22336;SDS011;14992;50.844;4.418;2024-01-30T15:52:49;1.40;;;1.17;;
22336;SDS011;14992;50.844;4.418;2024-01-30T15:55:18;1.83;;;1.73;;
22336;SDS011;14992;50.844;4.418;2024-01-30T15:57:48;1.05;;;0.80;;
22336;SDS011;14992;50.844;4.418;2024-01-30T16:00:17;9.73;;;1.92;;
22336;SDS011;14992;50.844;4.418;2024-01-30T16:02:46;4.70;;;1.17;;
22336;SDS011;14992;50.844;4.418;2024-01-30T16:05:15;3.67;;;2.22;;
22336;SDS011;14992;50.844;4.418;2024-01-30T16:07:44;1.35;;;0.98;;
22336;SDS011;14992;50.844;4.418;2024-01-30T16:10:14;3.38;;;1.30;;
22336;SDS011;14992;50.844;4.418;2024-01-30T16:12:44;2.45;;;1.10;;
22336;SDS011;14992;50.844;4.418;2024-01-30T16:15:13;4.32;;;3.38;;
22336;SDS011;14992;50.844;4.418;2024-01-30T16:17:43;5.10;;;2.67;;
22336;SDS011;14992;50.844;4.418;2024-01-30T16:20:12;1.02;;;0.90;;
22336;SDS011;14992;50.844;4.418;2024-01-30T16:22:42;1.80;;;1.13;;
22336;SDS011;14992;50.844;4.418;2024-01-30T16:25:11;1.55;;;1.00;;
22336;SDS011;14992;50.844;4.418;2024-01-30T16:27:44;2.15;;;1.20;;
22336;SDS011;14992;50.844;4.418;2024-01-30T16:30:14;3.22;;;1.77;;
22336;SDS011;14992;50.844;4.418;2024-01-30T16:32:44;1.75;;;1.30;;